Time;durP1;ratioP1;P1;durP2;ratioP2;P2;SDS_P1;SDS_P2;PMS_P1;PMS_P2;Temp;Humidity;BMP_temperature;BMP_pressure;BME280_temperature;BME280_humidity;BME280_pressure;Samples;Min_cycle;Max_cycle;Signal;HPM_P1;HPM_P2
2023/08/21 00:02:07;;;;;;;7.10;6.60;;;25.60;99.90;;;;;;10448312;28;20216;-84
2023/08/21 00:07:11;;;;;;;7.30;6.80;;;25.50;99.90;;;;;;10434692;28;20214;-84
2023/08/21 00:12:13;;;;;;;7.03;6.53;;;25.50;99.90;;;;;;10448311;28;20627;-84
2023/08/21 00:17:16;;;;;;;7.47;6.97;;;25.50;99.90;;;;;;10449130;28;20633;-83
2023/08/21 00:22:18;;;;;;;8.40;7.67;;;25.50;99.90;;;;;;10429772;28;20590;-83
2023/08/21 00:27:20;;;;;;;8.47;7.70;;;25.50;99.90;;;;;;10448431;28;20649;-83
2023/08/21 00:32:24;;;;;;;7.87;7.17;;;25.50;99.90;;;;;;10430225;28;20712;-84
2023/08/21 00:37:26;;;;;;;7.60;7.10;;;25.50;99.90;;;;;;10415462;28;20267;-82
2023/08/21 00:42:28;;;;;;;8.00;7.40;;;25.50;99.90;;;;;;10455032;28;20222;-83
2023/08/21 00:47:32;;;;;;;7.13;6.70;;;25.40;99.90;;;;;;10438963;28;20688;-83
2023/08/21 00:52:35;;;;;;;8.37;7.67;;;25.40;99.90;;;;;;10434756;28;20226;-83
2023/08/21 00:57:38;;;;;;;9.47;8.43;;;25.40;99.90;;;;;;10437101;28;20259;-84
2023/08/21 01:02:43;;;;;;;8.10;7.30;;;25.30;99.90;;;;;;10450184;28;20229;-84
2023/08/21 01:07:52;;;;;;;9.47;7.70;;;25.30;99.90;;;;;;10432972;28;20204;-83
2023/08/21 01:13:02;;;;;;;15.73;7.53;;;25.30;99.90;;;;;;10455260;28;20599;-84
2023/08/21 01:18:07;;;;;;;11.10;8.30;;;25.20;99.90;;;;;;10437819;28;20194;-83
2023/08/21 01:23:09;;;;;;;8.67;7.97;;;25.20;99.90;;;;;;10456223;28;20630;-84
2023/08/21 01:28:13;;;;;;;9.93;8.10;;;25.20;99.90;;;;;;10462646;28;20218;-84
2023/08/21 01:33:17;;;;;;;8.30;7.70;;;25.10;99.90;;;;;;10431715;28;20226;-83
2023/08/21 01:38:20;;;;;;;8.00;7.30;;;25.10;99.90;;;;;;10434631;28;20276;-84
2023/08/21 01:43:23;;;;;;;8.80;7.97;;;25.10;99.90;;;;;;10436911;28;20317;-83
2023/08/21 01:48:25;;;;;;;8.80;7.83;;;25.00;99.90;;;;;;10470016;28;20609;-83
2023/08/21 01:53:27;;;;;;;7.87;7.27;;;25.00;99.90;;;;;;10454290;28;20234;-83
2023/08/21 01:58:31;;;;;;;8.90;8.20;;;25.00;99.90;;;;;;10437148;28;20194;-84
2023/08/21 02:03:33;;;;;;;8.53;7.93;;;24.90;99.90;;;;;;10412300;28;20288;-83
2023/08/21 02:08:35;;;;;;;9.20;8.40;;;24.90;99.90;;;;;;10435882;28;20245;-83
2023/08/21 02:13:38;;;;;;;8.63;7.80;;;24.80;99.90;;;;;;10436093;28;20213;-84
2023/08/21 02:18:40;;;;;;;7.40;6.70;;;24.80;99.90;;;;;;10436553;28;20637;-83
2023/08/21 02:23:42;;;;;;;7.77;7.17;;;24.80;99.90;;;;;;10448756;28;20256;-83
2023/08/21 02:28:47;;;;;;;7.23;6.73;;;24.80;99.90;;;;;;10453126;28;20767;-83
2023/08/21 02:33:50;;;;;;;9.00;7.70;;;24.70;99.90;;;;;;10452758;28;20256;-83
2023/08/21 02:38:52;;;;;;;8.00;7.23;;;24.70;99.90;;;;;;10434943;28;20277;-82
2023/08/21 02:43:55;;;;;;;8.23;7.47;;;24.70;99.90;;;;;;10451953;28;20304;-84
2023/08/21 02:48:57;;;;;;;8.07;7.50;;;24.70;99.90;;;;;;10433653;28;20221;-83
2023/08/21 02:53:59;;;;;;;8.47;7.70;;;24.60;99.90;;;;;;10435330;28;20237;-84
2023/08/21 02:59:03;;;;;;;8.23;7.53;;;24.60;99.90;;;;;;10419000;28;20194;-84
2023/08/21 03:04:05;;;;;;;8.50;7.80;;;24.60;99.90;;;;;;10420852;28;20234;-84
2023/08/21 03:09:07;;;;;;;8.70;8.00;;;24.50;99.90;;;;;;10419954;28;20221;-83
2023/08/21 03:14:10;;;;;;;9.00;7.83;;;24.40;99.90;;;;;;10450475;28;20592;-83
2023/08/21 03:19:12;;;;;;;9.03;8.13;;;24.40;99.90;;;;;;10432988;28;20210;-84
2023/08/21 03:24:14;;;;;;;8.77;8.17;;;24.40;99.90;;;;;;10432915;28;20291;-82
2023/08/21 03:29:18;;;;;;;9.33;8.60;;;24.40;99.90;;;;;;10432908;28;20224;-83
2023/08/21 03:34:21;;;;;;;8.63;7.93;;;24.30;99.90;;;;;;10457494;28;20313;-83
2023/08/21 03:39:25;;;;;;;8.57;7.50;;;24.30;99.90;;;;;;10432201;28;20594;-84
2023/08/21 03:44:29;;;;;;;8.47;7.77;;;24.30;99.90;;;;;;10432320;28;20272;-83
2023/08/21 03:49:31;;;;;;;9.40;7.07;;;24.30;99.90;;;;;;10430933;28;20217;-83
2023/08/21 03:54:34;;;;;;;8.90;8.10;;;24.20;99.90;;;;;;10432299;28;20222;-83
2023/08/21 03:59:37;;;;;;;8.20;7.60;;;24.20;99.90;;;;;;10448140;28;20201;-83
2023/08/21 04:04:39;;;;;;;8.83;8.07;;;24.20;99.90;;;;;;10428502;28;20233;-84
2023/08/21 04:09:41;;;;;;;8.17;7.60;;;24.20;99.90;;;;;;10446190;28;20700;-84
2023/08/21 04:14:45;;;;;;;9.43;8.40;;;24.20;99.90;;;;;;10448067;28;20218;-83
2023/08/21 04:19:47;;;;;;;9.93;8.93;;;24.10;99.90;;;;;;10431259;28;20197;-83
2023/08/21 04:24:49;;;;;;;9.73;8.50;;;24.10;99.90;;;;;;10431533;28;20221;-83
2023/08/21 04:29:54;;;;;;;9.10;8.40;;;24.10;99.90;;;;;;10442330;28;20276;-83
2023/08/21 04:34:56;;;;;;;9.33;8.50;;;24.00;99.90;;;;;;10455034;28;20237;-83
2023/08/21 04:39:59;;;;;;;8.63;7.97;;;24.00;99.90;;;;;;10432700;28;20198;-83
2023/08/21 04:45:05;;;;;;;8.10;7.50;;;24.00;99.90;;;;;;10414578;28;20675;-84
2023/08/21 04:50:09;;;;;;;9.20;8.30;;;24.00;99.90;;;;;;10446604;28;20279;-82
2023/08/21 04:55:12;;;;;;;8.30;7.60;;;24.00;99.90;;;;;;10475274;28;20264;-83
2023/08/21 05:00:17;;;;;;;10.13;9.03;;;24.00;99.90;;;;;;10495708;28;20193;-82
2023/08/21 05:05:20;;;;;;;8.30;7.70;;;24.00;99.90;;;;;;10469881;28;20237;-82
2023/08/21 05:10:22;;;;;;;8.90;8.10;;;24.00;99.90;;;;;;10478353;28;20217;-82
2023/08/21 05:15:26;;;;;;;8.83;8.13;;;24.00;99.90;;;;;;10450065;28;20245;-83
2023/08/21 05:20:28;;;;;;;9.57;8.63;;;24.00;99.90;;;;;;10432257;28;20617;-83
2023/08/21 05:25:32;;;;;;;9.57;8.77;;;24.10;99.90;;;;;;10414055;28;20217;-84
2023/08/21 05:30:36;;;;;;;8.07;7.40;;;24.20;99.90;;;;;;10429647;28;20217;-83
2023/08/21 05:35:39;;;;;;;9.03;8.30;;;24.20;99.90;;;;;;10447760;28;20242;-82
2023/08/21 05:40:41;;;;;;;8.10;7.43;;;24.20;99.90;;;;;;10458553;28;20202;-82
2023/08/21 05:45:45;;;;;;;9.87;9.13;;;24.20;99.90;;;;;;10436417;28;20214;-83
2023/08/21 05:50:52;;;;;;;11.33;10.43;;;24.30;99.90;;;;;;10437167;28;20217;-84
2023/08/21 05:55:55;;;;;;;8.67;7.97;;;24.30;99.90;;;;;;10438237;28;20245;-83
2023/08/21 06:00:58;;;;;;;9.73;8.93;;;24.40;99.90;;;;;;10456189;28;20285;-83
2023/08/21 06:06:01;;;;;;;9.60;8.83;;;24.40;99.90;;;;;;10440942;28;20217;-83
2023/08/21 06:11:03;;;;;;;10.33;9.33;;;24.50;99.90;;;;;;10439377;28;20233;-83
2023/08/21 06:16:07;;;;;;;9.47;8.70;;;24.60;99.90;;;;;;10457781;28;20214;-83
2023/08/21 06:21:11;;;;;;;7.80;7.20;;;24.60;99.90;;;;;;10440062;28;20193;-83
2023/08/21 06:26:14;;;;;;;9.90;9.00;;;24.70;99.90;;;;;;10439774;28;20304;-83
2023/08/21 06:31:17;;;;;;;8.80;8.00;;;24.70;99.90;;;;;;10439817;28;20249;-83
2023/08/21 06:36:19;;;;;;;8.33;7.73;;;24.80;99.90;;;;;;10413915;28;20228;-83
2023/08/21 06:41:22;;;;;;;9.70;8.73;;;24.90;99.90;;;;;;10439302;28;20289;-83
2023/08/21 06:46:26;;;;;;;10.10;9.10;;;25.00;99.90;;;;;;10438808;28;20213;-82
2023/08/21 06:51:29;;;;;;;8.63;7.83;;;25.10;99.90;;;;;;10437640;28;20221;-83
2023/08/21 06:56:31;;;;;;;9.00;8.20;;;25.10;99.90;;;;;;10456113;28;20553;-83
2023/08/21 07:01:34;;;;;;;9.23;8.43;;;25.10;99.90;;;;;;10455814;28;20680;-83
2023/08/21 07:06:36;;;;;;;8.83;8.10;;;25.20;99.90;;;;;;10456118;28;20287;-83
2023/08/21 07:11:38;;;;;;;8.47;7.77;;;25.30;99.90;;;;;;10459599;28;20222;-83
2023/08/21 07:16:42;;;;;;;9.20;8.50;;;25.30;99.90;;;;;;10460279;28;20218;-84
2023/08/21 07:21:44;;;;;;;10.40;8.83;;;25.40;99.90;;;;;;10449024;28;20212;-82
2023/08/21 07:26:46;;;;;;;8.70;8.07;;;25.40;99.90;;;;;;10455399;28;20324;-84
2023/08/21 07:31:49;;;;;;;8.50;7.80;;;25.50;99.90;;;;;;10449805;28;20232;-83
2023/08/21 07:36:51;;;;;;;9.60;8.60;;;25.60;99.90;;;;;;10453835;28;20224;-83
2023/08/21 07:41:54;;;;;;;9.50;8.60;;;25.80;99.90;;;;;;10436338;28;20312;-83
2023/08/21 07:46:57;;;;;;;10.90;8.43;;;26.00;99.90;;;;;;10434959;28;20230;-83
2023/08/21 07:51:59;;;;;;;8.37;7.67;;;26.40;99.90;;;;;;10433979;28;20218;-83
2023/08/21 07:57:01;;;;;;;8.47;7.77;;;26.70;99.90;;;;;;10452194;28;20226;-83
2023/08/21 08:02:05;;;;;;;9.87;8.60;;;27.00;99.90;;;;;;10432442;28;20603;-83
2023/08/21 08:07:07;;;;;;;9.93;9.03;;;27.20;99.90;;;;;;10452256;28;20193;-83
2023/08/21 08:12:09;;;;;;;10.00;9.00;;;27.50;99.90;;;;;;10451018;28;20218;-83
2023/08/21 08:17:13;;;;;;;8.30;7.53;;;27.70;99.90;;;;;;10433095;28;20204;-83
2023/08/21 08:22:15;;;;;;;9.47;8.57;;;27.80;99.90;;;;;;10450978;28;20198;-83
2023/08/21 08:27:17;;;;;;;8.90;8.00;;;27.90;99.90;;;;;;10451790;28;20202;-83
2023/08/21 08:32:21;;;;;;;9.17;8.27;;;28.00;99.90;;;;;;10451374;28;20230;-83
2023/08/21 08:37:23;;;;;;;9.17;8.27;;;28.20;99.90;;;;;;10452480;28;20210;-83
2023/08/21 08:42:25;;;;;;;10.37;9.23;;;28.40;99.90;;;;;;10451038;28;20289;-83
2023/08/21 08:47:29;;;;;;;7.93;7.13;;;28.60;99.90;;;;;;10451341;28;20206;-83
2023/08/21 08:52:34;;;;;;;8.33;7.70;;;29.10;99.90;;;;;;10449523;28;20236;-83
2023/08/21 08:57:37;;;;;;;12.13;8.70;;;29.40;99.90;;;;;;10428369;28;20197;-83
2023/08/21 09:02:40;;;;;;;8.40;7.70;;;29.50;99.90;;;;;;10457207;28;20226;-84
2023/08/21 09:07:43;;;;;;;9.00;8.10;;;29.50;99.90;;;;;;10460310;28;20202;-83
2023/08/21 09:12:47;;;;;;;9.30;8.50;;;29.40;99.90;;;;;;10439596;28;20221;-84
2023/08/21 09:17:55;;;;;;;8.40;7.70;;;29.40;99.90;;;;;;10459156;28;20275;-83
2023/08/21 09:22:57;;;;;;;7.93;7.23;;;29.40;99.90;;;;;;10457477;28;20681;-84
2023/08/21 09:27:59;;;;;;;8.93;7.83;;;29.30;99.90;;;;;;10457492;28;20240;-83
2023/08/21 09:33:04;;;;;;;8.40;7.50;;;29.20;99.90;;;;;;10452382;28;20226;-83
2023/08/21 09:38:07;;;;;;;8.73;7.77;;;29.20;99.90;;;;;;10450942;28;20202;-83
2023/08/21 09:43:10;;;;;;;8.93;8.03;;;29.30;99.90;;;;;;10455453;28;20249;-83
2023/08/21 09:48:14;;;;;;;6.80;6.30;;;29.50;99.90;;;;;;10475417;28;20194;-84
2023/08/21 09:53:17;;;;;;;7.70;7.00;;;29.70;99.90;;;;;;10479221;28;20243;-84
2023/08/21 09:58:20;;;;;;;6.10;5.50;;;30.10;99.90;;;;;;10436953;28;20198;-84
2023/08/21 10:03:24;;;;;;;6.67;6.10;;;30.50;99.10;;;;;;10470097;28;20229;-84
2023/08/21 10:08:28;;;;;;;6.93;6.10;;;30.80;99.30;;;;;;10436833;28;20190;-83
2023/08/21 10:13:30;;;;;;;6.37;5.90;;;31.20;99.60;;;;;;10433449;28;20230;-83
2023/08/21 10:18:36;;;;;;;6.17;5.57;;;31.50;98.10;;;;;;10454302;28;20626;-82
2023/08/21 10:23:39;;;;;;;9.73;6.70;;;31.50;98.50;;;;;;10452580;28;20528;-84
2023/08/21 10:28:50;;;;;;;7.70;6.90;;;31.20;97.70;;;;;;10454002;28;20248;-84
2023/08/21 10:33:53;;;;;;;6.90;6.40;;;30.90;97.50;;;;;;10436130;28;20225;-83
2023/08/21 10:39:02;;;;;;;5.60;5.20;;;30.70;97.80;;;;;;10453900;28;20213;-84
2023/08/21 10:44:07;;;;;;;6.77;6.20;;;30.40;98.90;;;;;;10453736;28;20229;-83
2023/08/21 10:49:11;;;;;;;7.80;7.10;;;30.10;99.40;;;;;;10453736;28;20252;-84
2023/08/21 10:54:14;;;;;;;7.00;6.40;;;29.90;99.30;;;;;;10454062;28;20248;-83
2023/08/21 10:59:16;;;;;;;6.87;6.27;;;29.80;99.50;;;;;;10452640;28;20225;-83
2023/08/21 11:04:20;;;;;;;5.93;5.43;;;29.70;99.10;;;;;;10452397;28;20217;-83
2023/08/21 11:09:22;;;;;;;7.47;6.80;;;29.60;99.60;;;;;;10418984;28;20209;-83
2023/08/21 11:14:26;;;;;;;7.13;6.43;;;29.60;98.90;;;;;;10450486;28;20248;-84
2023/08/21 11:19:32;;;;;;;7.00;6.30;;;29.50;99.20;;;;;;10436434;28;20236;-84
2023/08/21 11:24:45;;;;;;;6.07;5.57;;;29.40;99.30;;;;;;10452352;28;20214;-84
2023/08/21 11:29:49;;;;;;;6.70;6.10;;;29.40;99.90;;;;;;10452406;28;20197;-84
2023/08/21 11:34:54;;;;;;;8.57;7.30;;;29.30;99.90;;;;;;10433619;28;20245;-83
2023/08/21 11:39:58;;;;;;;6.97;6.27;;;29.30;99.60;;;;;;10427720;28;20206;-84
2023/08/21 11:45:01;;;;;;;7.47;6.67;;;29.40;98.70;;;;;;10450935;28;20218;-84
2023/08/21 11:50:06;;;;;;;8.07;7.20;;;29.40;99.00;;;;;;10464330;28;20201;-84
2023/08/21 11:55:10;;;;;;;8.80;6.20;;;29.40;99.40;;;;;;10460258;28;20607;-84
2023/08/21 12:00:13;;;;;;;6.93;6.43;;;29.30;99.20;;;;;;10432820;28;20209;-83
2023/08/21 12:05:18;;;;;;;7.43;6.83;;;29.30;99.10;;;;;;10450583;28;20316;-83
2023/08/21 12:10:24;;;;;;;7.73;6.97;;;29.20;99.70;;;;;;10449022;28;20300;-82
2023/08/21 12:15:26;;;;;;;8.77;7.00;;;29.20;99.90;;;;;;10448773;28;20596;-83
2023/08/21 12:20:29;;;;;;;7.23;6.53;;;29.20;98.90;;;;;;10431793;28;20741;-83
2023/08/21 12:25:32;;;;;;;7.23;6.70;;;29.30;98.80;;;;;;10450114;28;20717;-84
2023/08/21 12:30:34;;;;;;;7.30;6.60;;;29.40;99.40;;;;;;10456419;28;20279;-83
2023/08/21 12:35:38;;;;;;;9.60;7.33;;;29.40;99.90;;;;;;10470832;28;20218;-83
2023/08/21 12:40:40;;;;;;;8.50;7.40;;;29.30;99.70;;;;;;10457286;28;20292;-84
2023/08/21 12:45:43;;;;;;;7.97;7.20;;;29.30;99.80;;;;;;10458248;28;20217;-84
2023/08/21 12:50:47;;;;;;;7.80;7.20;;;29.30;98.40;;;;;;10457565;28;20222;-84
2023/08/21 12:55:49;;;;;;;8.13;6.63;;;29.30;99.40;;;;;;10458626;28;20230;-84
2023/08/21 13:00:51;;;;;;;8.10;6.90;;;29.40;99.50;;;;;;10455240;28;20189;-84
2023/08/21 13:05:54;;;;;;;6.47;5.97;;;29.40;99.30;;;;;;10457523;28;20228;-83
2023/08/21 13:10:57;;;;;;;7.30;6.70;;;29.50;99.00;;;;;;10458171;28;20229;-84
2023/08/21 13:16:00;;;;;;;11.43;6.73;;;29.60;98.40;;;;;;10440137;28;20214;-83
2023/08/21 13:21:03;;;;;;;7.00;6.40;;;29.80;98.00;;;;;;10439397;28;20197;-83
2023/08/21 13:26:05;;;;;;;8.53;6.53;;;30.00;97.50;;;;;;10440149;28;20228;-84
2023/08/21 13:31:07;;;;;;;6.23;5.83;;;30.10;97.80;;;;;;10456760;28;20305;-83
2023/08/21 13:36:11;;;;;;;8.23;6.90;;;30.10;98.60;;;;;;10456670;28;20261;-82
2023/08/21 13:41:13;;;;;;;8.73;6.80;;;30.00;97.80;;;;;;10438080;28;20573;-83
2023/08/21 13:46:16;;;;;;;6.90;6.20;;;30.10;97.50;;;;;;10465212;28;20277;-84
2023/08/21 13:51:19;;;;;;;8.80;6.60;;;30.20;97.50;;;;;;10470755;28;20221;-84
2023/08/21 13:56:21;;;;;;;6.87;6.20;;;30.40;97.50;;;;;;10491845;28;20226;-83
2023/08/21 14:01:24;;;;;;;7.37;6.70;;;30.40;97.70;;;;;;10501889;28;20183;-84
2023/08/21 14:06:29;;;;;;;6.47;5.97;;;30.40;97.30;;;;;;10485228;28;20367;-84
2023/08/21 14:11:31;;;;;;;6.60;5.93;;;30.50;97.40;;;;;;10502061;28;20218;-83
2023/08/21 14:16:33;;;;;;;7.63;6.10;;;30.50;96.90;;;;;;10442757;28;20218;-84
2023/08/21 14:21:36;;;;;;;6.60;6.10;;;30.40;95.90;;;;;;10455041;28;20190;-83
2023/08/21 14:26:39;;;;;;;8.03;6.20;;;30.40;96.80;;;;;;10454512;28;20272;-84
2023/08/21 14:31:41;;;;;;;6.90;6.30;;;30.30;97.30;;;;;;10454062;28;20620;-82
2023/08/21 14:36:45;;;;;;;6.87;6.37;;;30.30;97.20;;;;;;10446223;28;20217;-83
2023/08/21 14:41:47;;;;;;;7.27;6.60;;;30.30;97.20;;;;;;10453672;28;20422;-84
2023/08/21 14:46:49;;;;;;;9.23;6.57;;;30.20;97.50;;;;;;10451577;28;20214;-84
2023/08/21 14:51:52;;;;;;;8.77;6.10;;;30.00;98.20;;;;;;10454519;28;20229;-83
2023/08/21 14:56:54;;;;;;;6.07;5.57;;;29.90;99.00;;;;;;10453609;28;20708;-83
2023/08/21 15:01:56;;;;;;;6.90;6.20;;;29.70;98.00;;;;;;10453610;28;20216;-83
2023/08/21 15:07:00;;;;;;;6.87;6.10;;;29.60;98.00;;;;;;10453011;28;20276;-84
2023/08/21 15:12:02;;;;;;;6.87;6.23;;;29.70;97.50;;;;;;10457888;28;20217;-83
2023/08/21 15:17:04;;;;;;;6.60;5.87;;;29.70;97.90;;;;;;10452222;28;20210;-83
2023/08/21 15:22:08;;;;;;;6.83;5.57;;;29.80;97.70;;;;;;10453407;28;20469;-83
2023/08/21 15:27:10;;;;;;;6.53;5.77;;;29.70;98.40;;;;;;10453671;28;20289;-83
2023/08/21 15:32:12;;;;;;;7.97;5.40;;;29.60;97.70;;;;;;10467555;28;20222;-83
2023/08/21 15:37:15;;;;;;;6.83;5.93;;;29.60;98.60;;;;;;10446952;28;20205;-84
2023/08/21 15:42:17;;;;;;;6.33;5.80;;;29.70;98.20;;;;;;10470729;28;20192;-84
2023/08/21 15:47:19;;;;;;;5.63;5.13;;;30.00;97.30;;;;;;10458672;28;20214;-83
2023/08/21 15:52:23;;;;;;;6.40;5.77;;;30.10;97.50;;;;;;10450995;28;20283;-84
2023/08/21 15:57:25;;;;;;;5.93;5.43;;;30.10;97.90;;;;;;10452506;28;20688;-83
2023/08/21 16:02:27;;;;;;;5.90;5.50;;;30.00;97.70;;;;;;10451868;28;20645;-84
2023/08/21 16:07:32;;;;;;;6.93;5.93;;;30.00;97.50;;;;;;10452058;28;20217;-84
2023/08/21 16:12:34;;;;;;;7.30;5.77;;;29.90;97.90;;;;;;10448293;28;20322;-83
2023/08/21 16:17:37;;;;;;;5.50;5.10;;;29.90;97.60;;;;;;10449585;28;20229;-82
2023/08/21 16:22:41;;;;;;;5.73;5.33;;;29.90;97.80;;;;;;10449432;28;20299;-83
2023/08/21 16:27:43;;;;;;;6.60;6.00;;;29.90;97.80;;;;;;10450738;28;20209;-83
2023/08/21 16:32:45;;;;;;;7.13;6.43;;;29.90;98.00;;;;;;10449192;28;20225;-83
2023/08/21 16:37:49;;;;;;;6.47;6.03;;;29.90;97.50;;;;;;10426261;28;20571;-83
2023/08/21 16:42:53;;;;;;;5.90;5.40;;;29.90;97.80;;;;;;10437561;28;20217;-84
2023/08/21 16:47:55;;;;;;;8.17;6.13;;;29.80;98.20;;;;;;10429157;28;20264;-85
2023/08/21 16:52:58;;;;;;;8.43;6.83;;;29.60;98.20;;;;;;10409675;28;20260;-84
2023/08/21 16:58:01;;;;;;;6.20;5.70;;;29.60;97.90;;;;;;10431451;28;20202;-83
2023/08/21 17:03:03;;;;;;;6.60;6.10;;;29.50;98.20;;;;;;10432717;28;20214;-83
2023/08/21 17:08:09;;;;;;;7.53;6.50;;;29.40;98.30;;;;;;10427700;28;20198;-84
2023/08/21 17:13:11;;;;;;;7.60;6.43;;;29.40;98.40;;;;;;10436881;28;20275;-85
2023/08/21 17:18:13;;;;;;;6.40;5.90;;;29.40;98.50;;;;;;10440521;28;20756;-84
2023/08/21 17:23:17;;;;;;;6.80;6.20;;;29.30;99.00;;;;;;10440125;28;20218;-85
2023/08/21 17:28:19;;;;;;;8.07;7.33;;;29.20;99.80;;;;;;10454838;28;20197;-84
2023/08/21 17:33:21;;;;;;;8.07;6.47;;;29.00;99.70;;;;;;10445808;28;20241;-83
2023/08/21 17:38:25;;;;;;;7.50;6.80;;;29.00;99.60;;;;;;10455013;28;20613;-85
2023/08/21 17:43:27;;;;;;;7.50;6.50;;;28.90;98.70;;;;;;10453995;28;20214;-84
2023/08/21 17:48:29;;;;;;;7.50;6.80;;;28.90;99.50;;;;;;10437077;28;20304;-83
2023/08/21 17:53:32;;;;;;;7.63;6.93;;;28.80;99.90;;;;;;10403108;28;1071752;-83
2023/08/21 17:58:35;;;;;;;7.03;6.43;;;28.70;99.90;;;;;;10454239;28;20252;-83
2023/08/21 18:03:38;;;;;;;9.07;8.07;;;28.60;99.90;;;;;;10440083;28;20221;-81
2023/08/21 18:08:41;;;;;;;6.63;6.13;;;28.50;99.90;;;;;;10456438;28;20638;-82
2023/08/21 18:13:43;;;;;;;7.33;6.70;;;28.40;99.90;;;;;;10437231;28;20626;-81
2023/08/21 18:18:46;;;;;;;7.67;6.97;;;28.30;99.90;;;;;;10458098;28;20202;-82
2023/08/21 18:23:49;;;;;;;8.07;7.43;;;28.20;99.90;;;;;;10450674;28;20210;-84
2023/08/21 18:28:51;;;;;;;7.87;7.17;;;28.10;99.90;;;;;;10449178;28;20201;-83
2023/08/21 18:33:54;;;;;;;7.37;6.60;;;28.00;99.90;;;;;;10466359;28;20293;-84
2023/08/21 18:38:57;;;;;;;8.27;7.47;;;28.00;99.90;;;;;;10463861;28;20206;-83
2023/08/21 18:43:59;;;;;;;8.17;7.13;;;27.90;99.90;;;;;;10463131;28;20210;-83
2023/08/21 18:49:01;;;;;;;7.00;6.40;;;27.90;99.90;;;;;;10451620;28;20194;-83
2023/08/21 18:54:06;;;;;;;8.67;7.53;;;27.90;99.90;;;;;;10468062;28;20222;-84
2023/08/21 18:59:08;;;;;;;8.40;7.57;;;27.90;99.90;;;;;;10457752;28;20194;-84
2023/08/21 19:04:10;;;;;;;7.60;6.90;;;27.80;99.90;;;;;;10466596;28;20588;-84
2023/08/21 19:09:14;;;;;;;8.13;7.50;;;27.70;99.90;;;;;;10452003;28;20195;-84
2023/08/21 19:14:16;;;;;;;9.23;6.83;;;27.70;99.90;;;;;;10443507;28;20289;-84
2023/08/21 19:19:19;;;;;;;8.87;7.20;;;27.60;99.90;;;;;;10438126;28;20655;-85
2023/08/21 19:24:22;;;;;;;6.97;6.20;;;27.60;99.90;;;;;;10435892;28;20261;-84
2023/08/21 19:29:24;;;;;;;7.90;6.97;;;27.50;99.90;;;;;;10436560;28;20692;-84
2023/08/21 19:34:26;;;;;;;7.97;7.37;;;27.50;99.90;;;;;;10397575;28;20237;-85
2023/08/21 19:39:30;;;;;;;8.50;7.70;;;27.40;99.90;;;;;;10431511;28;21143;-84
2023/08/21 19:44:33;;;;;;;8.93;8.13;;;27.30;99.90;;;;;;10444672;28;20214;-84
2023/08/21 19:49:35;;;;;;;9.63;8.73;;;27.30;99.90;;;;;;10445405;28;20226;-82
2023/08/21 19:54:39;;;;;;;9.13;8.33;;;27.20;99.90;;;;;;10469295;28;20233;-85
2023/08/21 19:59:41;;;;;;;9.00;7.80;;;27.20;99.90;;;;;;10469969;28;20247;-84
2023/08/21 20:04:43;;;;;;;11.70;10.50;;;27.10;99.90;;;;;;10460711;28;21079;-83
2023/08/21 20:09:47;;;;;;;9.40;8.60;;;27.10;99.90;;;;;;10460413;28;20237;-84
2023/08/21 20:14:49;;;;;;;7.23;6.63;;;27.10;99.90;;;;;;10448995;28;20225;-83
2023/08/21 20:19:51;;;;;;;8.67;7.60;;;27.00;99.90;;;;;;10440464;28;20233;-84
2023/08/21 20:24:56;;;;;;;7.70;7.10;;;27.00;99.90;;;;;;10437416;28;20229;-83
2023/08/21 20:29:58;;;;;;;7.73;7.13;;;26.90;99.90;;;;;;10438640;28;20209;-84
2023/08/21 20:35:00;;;;;;;8.50;7.67;;;26.90;99.90;;;;;;10436642;28;20226;-83
2023/08/21 20:40:08;;;;;;;8.00;7.30;;;26.90;99.90;;;;;;10421577;28;20210;-84
2023/08/21 20:45:11;;;;;;;8.50;7.70;;;26.90;99.90;;;;;;10436424;28;20240;-84
2023/08/21 20:50:13;;;;;;;10.50;8.67;;;26.80;99.90;;;;;;10438751;28;21127;-84
2023/08/21 20:55:17;;;;;;;9.83;8.10;;;26.80;99.90;;;;;;10443168;28;20777;-84
2023/08/21 21:00:20;;;;;;;8.53;7.60;;;26.70;99.90;;;;;;10448829;28;20197;-83
2023/08/21 21:05:22;;;;;;;11.43;6.67;;;26.70;99.90;;;;;;10449110;28;20287;-84
2023/08/21 21:10:26;;;;;;;8.03;7.43;;;26.70;99.90;;;;;;10443970;28;20206;-84
2023/08/21 21:15:28;;;;;;;7.33;6.73;;;26.60;99.90;;;;;;10448390;28;20229;-84
2023/08/21 21:20:30;;;;;;;7.60;7.00;;;26.60;99.90;;;;;;10441791;28;20212;-84
2023/08/21 21:25:33;;;;;;;8.83;7.93;;;26.60;99.90;;;;;;10449156;28;20218;-84
2023/08/21 21:30:35;;;;;;;7.83;7.03;;;26.50;99.90;;;;;;10430690;28;20217;-84
2023/08/21 21:35:37;;;;;;;7.37;6.77;;;26.50;99.90;;;;;;10416113;28;20281;-84
2023/08/21 21:40:42;;;;;;;8.23;7.63;;;26.50;99.90;;;;;;10452988;28;20224;-84
2023/08/21 21:45:45;;;;;;;8.00;7.20;;;26.40;99.90;;;;;;10448844;28;20264;-84
2023/08/21 21:50:47;;;;;;;11.63;8.10;;;26.40;99.90;;;;;;10448804;28;20283;-84
2023/08/21 21:55:50;;;;;;;8.17;7.57;;;26.30;99.90;;;;;;10448782;28;20237;-84
2023/08/21 22:00:52;;;;;;;8.47;7.57;;;26.30;99.90;;;;;;10447550;28;20225;-84
2023/08/21 22:05:56;;;;;;;7.63;7.03;;;26.30;99.90;;;;;;10447245;28;20221;-84
2023/08/21 22:11:04;;;;;;;8.63;7.87;;;26.20;99.90;;;;;;10445614;28;20321;-84
2023/08/21 22:16:07;;;;;;;6.60;6.10;;;26.20;99.90;;;;;;10428576;28;20226;-84
2023/08/21 22:21:10;;;;;;;7.60;7.00;;;26.20;99.90;;;;;;10444744;28;20225;-84
2023/08/21 22:26:14;;;;;;;9.93;7.30;;;26.20;99.90;;;;;;10446325;28;20760;-84
2023/08/21 22:31:16;;;;;;;8.10;7.47;;;26.10;99.90;;;;;;10447360;28;20279;-84
2023/08/21 22:36:18;;;;;;;7.77;7.10;;;26.10;99.90;;;;;;10447665;28;20238;-84
2023/08/21 22:41:21;;;;;;;8.73;7.93;;;26.10;99.90;;;;;;10446198;28;20213;-84
2023/08/21 22:46:23;;;;;;;8.43;7.60;;;26.00;99.90;;;;;;10445971;28;20241;-84
2023/08/21 22:51:25;;;;;;;7.63;6.93;;;26.00;99.90;;;;;;10444479;28;20229;-84
2023/08/21 22:56:30;;;;;;;8.50;6.90;;;26.00;99.90;;;;;;10449556;28;20229;-83
2023/08/21 23:01:32;;;;;;;7.57;7.00;;;26.00;99.90;;;;;;10505195;22;20240;-82
2023/08/21 23:06:34;;;;;;;7.47;6.70;;;25.90;99.90;;;;;;10478469;28;20214;-78
2023/08/21 23:11:37;;;;;;;6.80;6.30;;;25.90;99.90;;;;;;10473025;28;20712;-77
2023/08/21 23:16:40;;;;;;;7.00;6.40;;;25.80;99.90;;;;;;10473348;28;20233;-77
2023/08/21 23:21:42;;;;;;;7.80;7.10;;;25.80;99.90;;;;;;10473989;28;20252;-78
2023/08/21 23:26:45;;;;;;;7.30;6.60;;;25.80;99.90;;;;;;10472488;28;20236;-78
2023/08/21 23:31:47;;;;;;;7.30;6.70;;;25.80;99.90;;;;;;10473241;28;20561;-78
2023/08/21 23:36:50;;;;;;;7.40;6.07;;;25.70;99.90;;;;;;10473897;28;20225;-78
2023/08/21 23:41:53;;;;;;;7.00;6.50;;;25.60;99.90;;;;;;10456023;28;20673;-79
2023/08/21 23:46:55;;;;;;;7.60;6.90;;;25.60;99.90;;;;;;10474683;28;20193;-78
2023/08/21 23:51:57;;;;;;;7.13;6.40;;;25.60;99.90;;;;;;10472537;28;20262;-77
2023/08/21 23:57:00;;;;;;;6.90;6.40;;;25.50;99.90;;;;;;10472996;28;20355;-78
